createdAt,value
2019-02-05T00:01:05.991Z,1.50
2019-02-05T00:03:33.787Z,1.50
2019-02-05T00:06:01.489Z,1.50
2019-02-05T00:08:28.971Z,1.60
2019-02-05T00:10:56.955Z,1.60
2019-02-05T00:13:24.459Z,1.50
2019-02-05T00:15:52.027Z,1.50
2019-02-05T00:18:19.571Z,1.50
2019-02-05T00:20:47.267Z,1.40
2019-02-05T00:23:14.904Z,1.40
2019-02-05T00:25:42.672Z,1.40
2019-02-05T00:28:10.710Z,1.40
2019-02-05T00:30:38.555Z,1.30
2019-02-05T00:33:06.070Z,1.30
2019-02-05T00:35:33.582Z,1.20
2019-02-05T00:38:01.772Z,1.20
2019-02-05T00:40:29.240Z,1.20
2019-02-05T00:42:57.013Z,1.20
2019-02-05T00:45:24.686Z,1.10
2019-02-05T00:47:52.151Z,1.00
2019-02-05T00:50:19.954Z,0.90
2019-02-05T00:52:47.493Z,0.90
2019-02-05T00:55:15.185Z,0.90
2019-02-05T00:57:42.752Z,0.80
2019-02-05T01:00:21.902Z,0.80
2019-02-05T01:02:49.858Z,0.80
2019-02-05T01:05:17.652Z,0.80
2019-02-05T01:07:45.468Z,0.70
2019-02-05T01:10:13.267Z,0.70
2019-02-05T01:12:40.773Z,0.70
2019-02-05T01:15:10.546Z,0.70
2019-02-05T01:17:38.078Z,0.60
2019-02-05T01:20:07.847Z,0.60
2019-02-05T01:22:35.472Z,0.60
2019-02-05T01:25:03.720Z,0.60
2019-02-05T01:27:31.427Z,0.60
2019-02-05T01:29:58.942Z,0.50
2019-02-05T01:32:26.632Z,0.50
2019-02-05T01:34:54.113Z,0.50
2019-02-05T01:37:21.666Z,0.50
2019-02-05T01:39:49.126Z,0.50
2019-02-05T01:42:16.691Z,0.50
2019-02-05T01:44:44.156Z,0.50
2019-02-05T01:47:11.787Z,0.40
2019-02-05T01:49:39.301Z,0.40
2019-02-05T01:52:06.839Z,0.30
2019-02-05T01:54:34.349Z,0.30
2019-02-05T01:57:02.230Z,0.20
2019-02-05T01:59:30.032Z,0.10
2019-02-05T02:01:57.500Z,0.10
2019-02-05T02:04:25.550Z,0.10
2019-02-05T02:06:53.114Z,0.10
2019-02-05T02:09:20.577Z,0.10
2019-02-05T02:11:48.715Z,0.00
2019-02-05T02:14:16.258Z,0.00
2019-02-05T02:16:44.024Z,0.00
2019-02-05T02:19:11.527Z,0.00
2019-02-05T02:21:39.042Z,0.00
2019-02-05T02:24:06.729Z,-0.10
2019-02-05T02:26:34.280Z,-0.20
2019-02-05T02:29:01.889Z,-0.30
2019-02-05T02:31:29.532Z,-0.20
2019-02-05T02:33:57.002Z,-0.20
2019-02-05T02:36:24.575Z,-0.30
2019-02-05T02:38:52.302Z,-0.30
2019-02-05T02:41:20.071Z,-0.30
2019-02-05T02:43:47.873Z,-0.30
2019-02-05T02:46:15.374Z,-0.30
2019-02-05T02:48:42.867Z,-0.30
2019-02-05T02:51:10.439Z,-0.40
2019-02-05T02:53:38.049Z,-0.50
2019-02-05T02:56:05.546Z,-0.50
2019-02-05T02:58:33.456Z,-0.50
2019-02-05T03:01:00.958Z,-0.60
2019-02-05T03:03:28.562Z,-0.60
2019-02-05T03:05:56.152Z,-0.60
2019-02-05T03:08:23.866Z,-0.60
2019-02-05T03:10:51.669Z,-0.60
2019-02-05T03:13:19.141Z,-0.60
2019-02-05T03:15:46.743Z,-0.70
2019-02-05T03:18:14.360Z,-0.70
2019-02-05T03:20:41.969Z,-0.70
2019-02-05T03:23:10.083Z,-0.70
2019-02-05T03:25:37.865Z,-0.70
2019-02-05T03:28:05.321Z,-0.70
2019-02-05T03:30:32.880Z,-0.70
2019-02-05T03:33:00.321Z,-0.70
2019-02-05T03:35:27.881Z,-0.80
2019-02-05T03:37:56.142Z,-0.80
2019-02-05T03:41:01.129Z,-0.80
2019-02-05T03:43:28.737Z,-0.80
2019-02-05T03:45:58.232Z,-0.90
2019-02-05T03:48:26.560Z,-0.80
2019-02-05T03:51:01.311Z,-0.80
2019-02-05T03:53:32.086Z,-0.80
2019-02-05T03:56:31.732Z,-0.80
2019-02-05T03:59:24.935Z,-0.80
2019-02-05T04:02:24.675Z,-0.80
2019-02-05T04:05:32.350Z,-0.80
2019-02-05T04:08:52.212Z,-0.90
2019-02-05T04:11:47.186Z,-1.00
2019-02-05T04:14:41.973Z,-1.00
2019-02-05T04:17:57.597Z,-1.00
2019-02-05T04:21:05.394Z,-1.00
2019-02-05T04:24:09.371Z,-1.00
2019-02-05T04:27:04.944Z,-1.00
2019-02-05T04:30:06.395Z,-1.00
2019-02-05T04:32:58.394Z,-1.00
2019-02-05T04:36:12.682Z,-0.90
2019-02-05T04:39:08.271Z,-0.90
2019-02-05T04:42:17.533Z,-0.90
2019-02-05T04:45:39.537Z,-0.90
2019-02-05T04:48:59.247Z,-0.90
2019-02-05T04:52:00.059Z,-0.80
2019-02-05T04:54:46.446Z,-0.80
2019-02-05T04:57:38.333Z,-0.70
2019-02-05T05:00:29.559Z,-0.70
2019-02-05T05:03:38.937Z,-0.70
2019-02-05T05:06:45.469Z,-0.60
2019-02-05T05:09:54.308Z,-0.60
2019-02-05T05:12:21.949Z,-0.50
2019-02-05T05:14:49.782Z,-0.50
2019-02-05T05:17:17.386Z,-0.40
2019-02-05T05:19:45.266Z,-0.40
2019-02-05T05:22:12.850Z,-0.40
2019-02-05T05:24:41.350Z,-0.30
2019-02-05T05:27:09.166Z,-0.20
2019-02-05T05:29:36.837Z,-0.20
2019-02-05T05:32:04.936Z,-0.20
2019-02-05T05:34:32.479Z,-0.20
2019-02-05T05:36:59.063Z,-0.20
2019-02-05T05:39:26.599Z,-0.20
2019-02-05T05:41:54.094Z,-0.20
2019-02-05T05:44:21.854Z,-0.20
2019-02-05T05:46:49.599Z,-0.20
2019-02-05T05:49:17.632Z,-0.20
2019-02-05T05:51:45.169Z,-0.20
2019-02-05T05:54:12.987Z,-0.10
2019-02-05T05:56:40.422Z,-0.10
2019-02-05T05:59:08.173Z,-0.10
2019-02-05T06:01:35.635Z,-0.10
2019-02-05T06:04:03.699Z,-0.10
2019-02-05T06:06:31.145Z,-0.10
2019-02-05T06:08:59.196Z,-0.10
2019-02-05T06:11:26.714Z,-0.10
2019-02-05T06:13:54.224Z,0.00
2019-02-05T06:16:22.135Z,0.00
2019-02-05T06:18:49.757Z,0.00
2019-02-05T06:21:17.269Z,0.00
2019-02-05T06:23:44.904Z,0.00
2019-02-05T06:26:12.512Z,0.00
2019-02-05T06:28:40.517Z,0.00
2019-02-05T06:31:08.641Z,-0.10
2019-02-05T06:33:36.181Z,0.00
2019-02-05T06:36:03.842Z,0.00
2019-02-05T06:38:31.629Z,-0.10
2019-02-05T06:40:59.392Z,-0.10
2019-02-05T06:43:26.824Z,-0.10
2019-02-05T06:45:54.619Z,-0.10
2019-02-05T06:48:22.171Z,-0.20
2019-02-05T06:50:49.942Z,-0.20
2019-02-05T06:53:17.391Z,-0.20
2019-02-05T06:55:44.872Z,-0.20
2019-02-05T06:58:12.595Z,-0.20
2019-02-05T07:00:40.106Z,-0.20
2019-02-05T07:03:08.062Z,-0.20
2019-02-05T07:05:35.890Z,-0.20
2019-02-05T07:08:03.804Z,-0.20
2019-02-05T07:10:31.548Z,-0.20
2019-02-05T07:12:59.048Z,-0.10
2019-02-05T07:15:26.588Z,-0.10
2019-02-05T07:17:54.113Z,-0.10
2019-02-05T07:20:21.602Z,-0.10
2019-02-05T07:22:49.054Z,0.00
2019-02-05T07:25:17.266Z,0.00
2019-02-05T07:27:44.977Z,0.00
2019-02-05T07:30:20.478Z,0.00
2019-02-05T07:32:47.952Z,0.10
2019-02-05T07:35:15.770Z,0.10
2019-02-05T07:37:43.258Z,0.20
2019-02-05T07:40:12.125Z,0.20
2019-02-05T07:42:39.972Z,0.20
2019-02-05T07:45:10.172Z,0.30
2019-02-05T07:47:37.767Z,0.30
2019-02-05T07:50:07.416Z,0.30
2019-02-05T07:52:34.859Z,0.30
2019-02-05T07:55:02.349Z,0.30
2019-02-05T07:57:29.865Z,0.40
2019-02-05T07:59:57.387Z,0.50
2019-02-05T08:02:25.112Z,0.60
2019-02-05T08:04:52.636Z,0.60
2019-02-05T08:07:20.547Z,0.60
2019-02-05T08:09:48.334Z,0.70
2019-02-05T08:12:16.101Z,0.70
2019-02-05T08:14:43.669Z,0.70
2019-02-05T08:17:11.158Z,0.80
2019-02-05T08:19:38.754Z,0.80
2019-02-05T08:22:06.493Z,0.80
2019-02-05T08:24:34.326Z,0.90
2019-02-05T08:27:02.078Z,1.00
2019-02-05T08:29:29.818Z,1.00
2019-02-05T08:31:57.561Z,1.10
2019-02-05T08:34:25.006Z,1.10
2019-02-05T08:36:52.520Z,1.20
2019-02-05T08:39:20.437Z,1.20
2019-02-05T08:41:48.254Z,1.30
2019-02-05T08:44:16.181Z,1.30
2019-02-05T08:46:43.615Z,1.40
2019-02-05T08:49:11.373Z,1.40
2019-02-05T08:51:39.219Z,1.50
2019-02-05T08:54:06.947Z,1.50
2019-02-05T08:56:34.505Z,1.60
2019-02-05T08:59:01.972Z,1.70
2019-02-05T09:01:30.067Z,1.80
2019-02-05T09:03:57.702Z,1.90
2019-02-05T09:06:25.492Z,2.00
2019-02-05T09:08:53.368Z,2.00
2019-02-05T09:11:20.838Z,2.10
2019-02-05T09:13:48.276Z,2.20
2019-02-05T09:16:15.791Z,2.30
2019-02-05T09:18:43.230Z,2.40
2019-02-05T09:21:10.741Z,2.50
2019-02-05T09:23:38.839Z,2.50
2019-02-05T09:26:06.286Z,2.60
2019-02-05T09:28:34.028Z,2.60
2019-02-05T09:31:01.498Z,2.60
2019-02-05T09:33:29.276Z,2.70
2019-02-05T09:35:57.012Z,2.70
2019-02-05T09:38:24.547Z,2.80
2019-02-05T09:40:52.007Z,2.80
2019-02-05T09:43:19.500Z,3.00
2019-02-05T09:45:46.996Z,3.00
2019-02-05T09:48:14.785Z,3.10
2019-02-05T09:50:44.910Z,3.20
2019-02-05T09:53:12.793Z,3.30
2019-02-05T09:55:40.659Z,3.40
2019-02-05T09:58:07.889Z,3.40
2019-02-05T10:00:37.329Z,3.50
2019-02-05T10:03:05.889Z,3.60
2019-02-05T10:05:33.516Z,3.70
2019-02-05T10:08:01.042Z,3.80
2019-02-05T10:10:28.587Z,3.80
2019-02-05T10:12:56.284Z,3.90
2019-02-05T10:15:29.522Z,3.90
2019-02-05T10:17:57.470Z,3.90
2019-02-05T10:20:25.420Z,4.00
2019-02-05T10:22:55.172Z,4.10
2019-02-05T10:25:22.691Z,4.10
2019-02-05T10:27:50.147Z,4.20
2019-02-05T10:30:26.137Z,4.30
2019-02-05T10:32:54.138Z,4.30
2019-02-05T10:35:22.076Z,4.40
2019-02-05T10:37:50.140Z,4.50
2019-02-05T10:40:17.998Z,4.50
2019-02-05T10:42:45.495Z,4.60
2019-02-05T10:45:14.299Z,4.60
2019-02-05T10:47:41.943Z,4.70
2019-02-05T10:50:10.859Z,4.80
2019-02-05T10:52:39.058Z,4.80
2019-02-05T10:55:08.330Z,4.80
2019-02-05T10:57:35.895Z,4.90
2019-02-05T11:00:09.054Z,4.90
2019-02-05T11:02:36.546Z,4.90
2019-02-05T11:05:05.739Z,5.00
2019-02-05T11:07:33.623Z,5.00
2019-02-05T11:10:01.400Z,5.00
2019-02-05T11:12:28.926Z,5.00
2019-02-05T11:14:56.846Z,5.10
2019-02-05T11:17:24.350Z,5.10
2019-02-05T11:19:51.872Z,5.20
2019-02-05T11:22:19.645Z,5.20
2019-02-05T11:24:47.126Z,5.20
2019-02-05T11:27:15.647Z,5.30
2019-02-05T11:29:43.768Z,5.30
2019-02-05T11:32:11.653Z,5.30
2019-02-05T11:34:39.444Z,5.30
2019-02-05T11:37:07.400Z,5.40
2019-02-05T11:39:35.273Z,5.40
2019-02-05T11:42:02.966Z,5.40
2019-02-05T11:44:30.495Z,5.40
2019-02-05T11:46:58.116Z,5.40
2019-02-05T11:49:26.118Z,5.40
2019-02-05T11:51:53.643Z,5.40
2019-02-05T11:54:21.151Z,5.50
2019-02-05T11:56:48.620Z,5.50
2019-02-05T11:59:16.180Z,5.50
2019-02-05T12:01:43.995Z,5.60
2019-02-05T12:04:11.535Z,5.60
2019-02-05T12:06:39.327Z,5.60
2019-02-05T12:09:19.919Z,5.60
2019-02-05T12:11:47.504Z,5.70
2019-02-05T12:14:15.096Z,5.70
2019-02-05T12:16:42.637Z,5.70
2019-02-05T12:19:10.181Z,5.80
2019-02-05T12:21:38.263Z,5.80
2019-02-05T12:24:05.954Z,5.80
2019-02-05T12:26:33.538Z,5.80
2019-02-05T12:29:01.267Z,5.80
2019-02-05T12:31:28.913Z,5.90
2019-02-05T12:33:56.420Z,5.90
2019-02-05T12:36:24.316Z,5.90
2019-02-05T12:38:51.795Z,5.90
2019-02-05T12:41:19.404Z,6.00
2019-02-05T12:43:47.245Z,6.00
2019-02-05T12:46:14.788Z,6.00
2019-02-05T12:48:42.535Z,6.00
2019-02-05T12:51:09.752Z,6.10
2019-02-05T12:53:37.610Z,6.10
2019-02-05T12:56:05.374Z,6.20
2019-02-05T12:58:32.960Z,6.20
2019-02-05T13:01:01.178Z,6.20
2019-02-05T13:03:29.199Z,6.20
2019-02-05T13:05:56.691Z,6.20
2019-02-05T13:08:24.216Z,6.20
2019-02-05T13:10:52.400Z,6.30
2019-02-05T13:13:20.111Z,6.30
2019-02-05T13:15:47.732Z,6.40
2019-02-05T13:18:15.674Z,6.50
2019-02-05T13:20:43.631Z,6.50
2019-02-05T13:23:11.315Z,6.50
2019-02-05T13:25:39.032Z,6.60
2019-02-05T13:28:08.790Z,6.60
2019-02-05T13:30:38.239Z,6.60
2019-02-05T13:33:06.129Z,6.60
2019-02-05T13:35:34.009Z,6.60
2019-02-05T13:38:01.557Z,6.70
2019-02-05T13:48:52.587Z,6.70
2019-02-05T13:51:25.270Z,6.70
2019-02-05T13:53:53.652Z,6.80
2019-02-05T13:56:24.219Z,6.80
2019-02-05T13:58:52.922Z,6.80
2019-02-05T14:01:22.718Z,6.90
2019-02-05T14:03:53.260Z,6.90
2019-02-05T14:06:20.778Z,6.90
2019-02-05T14:08:50.047Z,6.90
2019-02-05T14:11:17.970Z,7.00
2019-02-05T14:13:49.059Z,7.00
2019-02-05T14:16:20.973Z,7.10
2019-02-05T14:18:55.346Z,7.10
2019-02-05T14:21:27.177Z,7.10
2019-02-05T14:23:57.469Z,7.10
2019-02-05T14:26:26.766Z,7.00
2019-02-05T14:28:56.311Z,7.10
2019-02-05T14:31:31.313Z,7.00
2019-02-05T14:33:59.718Z,6.90
2019-02-05T14:36:29.759Z,7.00
2019-02-05T14:39:05.670Z,7.00
2019-02-05T14:41:36.994Z,7.00
2019-02-05T14:44:07.692Z,7.00
2019-02-05T14:46:36.632Z,7.00
2019-02-05T14:49:04.614Z,7.00
2019-02-05T14:51:37.191Z,7.00
2019-02-05T14:54:09.166Z,7.00
2019-02-05T14:56:38.691Z,7.00
2019-02-05T14:59:08.271Z,7.00
2019-02-05T15:01:43.072Z,7.00
2019-02-05T15:04:10.055Z,7.00
2019-02-05T15:06:43.804Z,6.90
2019-02-05T15:09:13.752Z,6.90
2019-02-05T15:11:42.637Z,6.90
2019-02-05T15:14:13.021Z,6.90
2019-02-05T15:16:41.408Z,6.90
2019-02-05T15:19:09.538Z,6.80
2019-02-05T15:21:39.204Z,6.80
2019-02-05T15:24:11.811Z,6.80
2019-02-05T15:26:46.836Z,6.80
2019-02-05T15:29:16.869Z,6.80
2019-02-05T15:31:54.631Z,6.70
2019-02-05T15:34:22.874Z,6.70
2019-02-05T15:36:52.327Z,6.70
2019-02-05T15:39:21.504Z,6.70
2019-02-05T15:41:52.085Z,6.60
2019-02-05T15:44:19.739Z,6.60
2019-02-05T15:46:50.153Z,6.60
2019-02-05T15:49:22.323Z,6.60
2019-02-05T15:51:51.989Z,6.60
2019-02-05T15:54:23.695Z,6.50
2019-02-05T15:56:53.106Z,6.50
2019-02-05T15:59:22.028Z,6.50
2019-02-05T16:01:52.182Z,6.50
2019-02-05T16:04:22.718Z,6.50
2019-02-05T16:06:52.132Z,6.50
2019-02-05T16:09:25.986Z,6.50
2019-02-05T16:11:55.140Z,6.40
2019-02-05T16:14:23.792Z,6.40
2019-02-05T16:16:53.824Z,6.40
2019-02-05T16:19:22.165Z,6.40
2019-02-05T16:21:50.639Z,6.40
2019-02-05T16:24:22.755Z,6.30
2019-02-05T16:26:50.506Z,6.30
2019-02-05T16:29:21.552Z,6.20
2019-02-05T16:31:52.496Z,6.20
2019-02-05T16:34:24.482Z,6.10
2019-02-05T16:36:54.475Z,6.10
2019-02-05T16:39:26.743Z,6.10
2019-02-05T16:41:54.871Z,6.00
2019-02-05T16:44:24.933Z,6.00
2019-02-05T16:46:59.284Z,5.90
2019-02-05T16:49:32.756Z,5.90
2019-02-05T16:52:05.270Z,5.90
2019-02-05T16:54:33.411Z,5.80
2019-02-05T16:57:00.927Z,5.70
2019-02-05T16:59:29.057Z,5.70
2019-02-05T17:01:57.415Z,5.70
2019-02-05T17:04:25.693Z,5.70
2019-02-05T17:06:55.048Z,5.60
2019-02-05T17:09:32.945Z,5.60
2019-02-05T17:12:02.745Z,5.50
2019-02-05T17:14:31.330Z,5.50
2019-02-05T17:17:01.831Z,5.50
2019-02-05T17:19:31.922Z,5.50
2019-02-05T17:22:03.506Z,5.50
2019-02-05T17:24:31.942Z,5.50
2019-02-05T17:26:59.947Z,5.40
2019-02-05T17:29:28.423Z,5.40
2019-02-05T17:31:56.930Z,5.40
2019-02-05T17:34:26.181Z,5.30
2019-02-05T17:36:55.640Z,5.30
2019-02-05T17:39:28.567Z,5.30
2019-02-05T17:42:00.267Z,5.30
2019-02-05T17:44:31.877Z,5.30
2019-02-05T17:47:01.340Z,5.20
2019-02-05T17:49:30.497Z,5.20
2019-02-05T17:52:00.172Z,5.20
2019-02-05T17:54:31.590Z,5.20
2019-02-05T17:57:01.025Z,5.20
2019-02-05T17:59:32.874Z,5.20
2019-02-05T18:02:05.593Z,5.20
2019-02-05T18:04:35.048Z,5.20
2019-02-05T18:07:06.273Z,5.20
2019-02-05T18:09:37.823Z,5.20
2019-02-05T18:12:09.101Z,5.10
2019-02-05T18:14:38.929Z,5.10
2019-02-05T18:17:12.568Z,5.10
2019-02-05T18:19:42.458Z,5.10
2019-02-05T18:22:15.067Z,5.10
2019-02-05T18:24:45.253Z,5.10
2019-02-05T18:27:16.638Z,5.10
2019-02-05T18:29:52.261Z,5.00
2019-02-05T18:32:25.010Z,5.00
2019-02-05T18:35:03.669Z,5.00
2019-02-05T18:37:36.168Z,5.00
2019-02-05T18:40:08.568Z,5.00
2019-02-05T18:42:46.964Z,5.00
2019-02-05T18:45:26.075Z,5.00
2019-02-05T18:47:55.641Z,5.00
2019-02-05T18:50:31.506Z,5.00
2019-02-05T18:53:06.877Z,5.00
2019-02-05T18:55:40.149Z,5.00
2019-02-05T18:58:10.680Z,5.10
2019-02-05T19:00:42.102Z,5.00
2019-02-05T19:03:16.024Z,5.00
2019-02-05T19:05:45.409Z,5.00
2019-02-05T19:08:18.015Z,5.00
2019-02-05T19:10:52.794Z,5.00
2019-02-05T19:13:24.177Z,5.00
2019-02-05T19:15:59.745Z,5.00
2019-02-05T19:18:33.034Z,4.90
2019-02-05T19:26:49.864Z,4.90
2019-02-05T19:29:19.920Z,4.90
2019-02-05T19:31:51.071Z,4.90
2019-02-05T19:34:25.944Z,4.90
2019-02-05T19:36:55.660Z,4.90
2019-02-05T19:39:25.918Z,4.90
2019-02-05T19:41:57.590Z,4.80
2019-02-05T19:44:28.675Z,4.80
2019-02-05T19:47:07.128Z,4.80
2019-02-05T19:49:42.250Z,4.80
2019-02-05T19:52:12.798Z,4.80
2019-02-05T19:54:51.582Z,4.80
2019-02-05T19:57:20.785Z,4.70
2019-02-05T19:59:55.525Z,4.70
2019-02-05T20:02:27.558Z,4.70
2019-02-05T20:04:56.709Z,4.70
2019-02-05T20:07:25.181Z,4.70
2019-02-05T20:09:54.360Z,4.70
2019-02-05T20:12:22.836Z,4.60
2019-02-05T20:14:50.771Z,4.50
2019-02-05T20:17:26.100Z,4.50
2019-02-05T20:19:55.073Z,4.40
2019-02-05T20:22:23.706Z,4.30
2019-02-05T20:24:52.777Z,4.20
2019-02-05T20:27:21.819Z,4.10
2019-02-05T20:29:50.325Z,4.00
2019-02-05T20:32:19.456Z,3.90
2019-02-05T20:34:48.092Z,3.90
2019-02-05T20:37:19.797Z,3.80
2019-02-05T20:39:48.813Z,3.70
2019-02-05T20:42:16.906Z,3.60
2019-02-05T20:44:48.912Z,3.60
2019-02-05T20:47:20.404Z,3.50
2019-02-05T20:49:52.307Z,3.40
2019-02-05T20:52:20.793Z,3.20
2019-02-05T20:54:49.211Z,3.10
2019-02-05T20:57:17.981Z,3.10
2019-02-05T20:59:46.134Z,3.00
2019-02-05T21:02:14.826Z,2.90
2019-02-05T21:04:48.559Z,2.90
2019-02-05T21:07:14.137Z,2.80
2019-02-05T21:09:44.642Z,2.70
2019-02-05T21:12:14.792Z,2.70
2019-02-05T21:14:43.650Z,2.70
2019-02-05T21:17:17.719Z,2.60
2019-02-05T21:19:48.345Z,2.50
2019-02-05T21:22:17.397Z,2.50
2019-02-05T21:24:45.943Z,2.40
2019-02-05T21:27:13.637Z,2.40
2019-02-05T21:29:41.521Z,2.40
2019-02-05T21:32:10.055Z,2.40
2019-02-05T21:34:37.845Z,2.30
2019-02-05T21:37:07.993Z,2.20
2019-02-05T21:39:35.508Z,2.20
2019-02-05T21:42:03.303Z,2.20
2019-02-05T21:44:30.952Z,2.10
2019-02-05T21:46:58.416Z,2.10
2019-02-05T21:49:25.918Z,2.00
2019-02-05T21:51:53.506Z,2.00
2019-02-05T21:54:21.099Z,2.00
2019-02-05T21:56:49.652Z,1.90
2019-02-05T21:59:17.240Z,1.90
2019-02-05T22:01:44.931Z,1.90
2019-02-05T22:04:12.735Z,1.90
2019-02-05T22:06:40.290Z,1.90
2019-02-05T22:09:10.423Z,1.80
2019-02-05T22:11:40.894Z,1.80
2019-02-05T22:14:07.659Z,1.80
2019-02-05T22:16:35.138Z,1.70
2019-02-05T22:19:03.213Z,1.60
2019-02-05T22:21:30.779Z,1.60
2019-02-05T22:23:59.726Z,1.50
2019-02-05T22:26:27.442Z,1.50
2019-02-05T22:28:55.260Z,1.50
2019-02-05T22:31:23.546Z,1.40
2019-02-05T22:34:02.645Z,1.30
2019-02-05T22:36:34.093Z,1.30
2019-02-05T22:39:24.674Z,1.30
2019-02-05T22:41:54.687Z,1.30
2019-02-05T22:44:25.419Z,1.30
2019-02-05T22:46:56.747Z,1.30
2019-02-05T22:50:16.719Z,1.20
2019-02-05T22:54:05.595Z,1.20
2019-02-05T23:33:30.198Z,0.90
2019-02-05T23:35:57.606Z,0.90
2019-02-05T23:38:29.739Z,0.90
2019-02-05T23:40:54.793Z,0.80
2019-02-05T23:43:22.680Z,0.80
2019-02-05T23:46:00.874Z,0.80
2019-02-05T23:48:20.583Z,0.80
2019-02-05T23:50:48.238Z,0.80
2019-02-05T23:53:15.697Z,0.80
2019-02-05T23:55:43.383Z,0.70
2019-02-05T23:58:11.130Z,0.70
